sensor_id;sensor_type;location;lat;lon;timestamp;pressure;altitude;pressure_sealevel;temperature;humidity
20015;BME280;61787;42.022;23.078;2023-07-24T00:00:35;96900.09;;;24.92;44.76
20015;BME280;61787;42.022;23.078;2023-07-24T00:01:37;96912.06;;;24.82;45.14
20015;BME280;61787;42.022;23.078;2023-07-24T00:02:38;96910.84;;;24.63;45.91
20015;BME280;61787;42.022;23.078;2023-07-24T00:03:40;96911.84;;;24.53;46.02
20015;BME280;61787;42.022;23.078;2023-07-24T00:04:42;96920.56;;;24.48;45.67
20015;BME280;61787;42.022;23.078;2023-07-24T00:05:43;96909.78;;;24.37;46.22
20015;BME280;61787;42.022;23.078;2023-07-24T00:06:45;96911.06;;;24.33;46.10
20015;BME280;61787;42.022;23.078;2023-07-24T00:07:46;96910.34;;;24.29;47.03
20015;BME280;61787;42.022;23.078;2023-07-24T00:08:48;96910.00;;;24.27;46.44
20015;BME280;61787;42.022;23.078;2023-07-24T00:09:50;96905.34;;;24.24;46.93
20015;BME280;61787;42.022;23.078;2023-07-24T00:10:51;96909.25;;;24.26;46.94
20015;BME280;61787;42.022;23.078;2023-07-24T00:11:53;96905.25;;;24.31;46.77
20015;BME280;61787;42.022;23.078;2023-07-24T00:12:55;96912.97;;;24.36;46.56
20015;BME280;61787;42.022;23.078;2023-07-24T00:13:56;96906.50;;;24.46;46.02
20015;BME280;61787;42.022;23.078;2023-07-24T00:14:58;96905.31;;;24.47;46.18
20015;BME280;61787;42.022;23.078;2023-07-24T00:16:00;96907.63;;;24.48;46.19
20015;BME280;61787;42.022;23.078;2023-07-24T00:17:02;96912.81;;;24.43;45.92
20015;BME280;61787;42.022;23.078;2023-07-24T00:18:03;96910.56;;;24.38;46.13
20015;BME280;61787;42.022;23.078;2023-07-24T00:19:05;96911.25;;;24.42;46.51
20015;BME280;61787;42.022;23.078;2023-07-24T00:20:07;96916.81;;;24.38;45.68
20015;BME280;61787;42.022;23.078;2023-07-24T00:21:09;96913.16;;;24.25;45.34
20015;BME280;61787;42.022;23.078;2023-07-24T00:22:12;96902.97;;;24.26;45.13
20015;BME280;61787;42.022;23.078;2023-07-24T00:23:13;96911.53;;;24.28;45.06
20015;BME280;61787;42.022;23.078;2023-07-24T00:24:15;96913.09;;;24.29;44.95
20015;BME280;61787;42.022;23.078;2023-07-24T00:25:17;96904.25;;;24.21;45.11
20015;BME280;61787;42.022;23.078;2023-07-24T00:26:18;96913.34;;;24.14;44.67
20015;BME280;61787;42.022;23.078;2023-07-24T00:27:20;96912.56;;;24.14;44.85
20015;BME280;61787;42.022;23.078;2023-07-24T00:28:22;96907.16;;;24.10;44.95
20015;BME280;61787;42.022;23.078;2023-07-24T00:29:23;96904.69;;;24.16;46.05
20015;BME280;61787;42.022;23.078;2023-07-24T00:30:25;96908.88;;;24.01;47.00
20015;BME280;61787;42.022;23.078;2023-07-24T00:31:27;96904.41;;;23.87;46.78
20015;BME280;61787;42.022;23.078;2023-07-24T00:32:28;96909.06;;;23.90;46.83
20015;BME280;61787;42.022;23.078;2023-07-24T00:33:30;96912.22;;;23.89;46.89
20015;BME280;61787;42.022;23.078;2023-07-24T00:34:31;96901.56;;;23.94;46.98
20015;BME280;61787;42.022;23.078;2023-07-24T00:35:33;96905.09;;;23.95;47.00
20015;BME280;61787;42.022;23.078;2023-07-24T00:36:35;96911.19;;;24.02;47.08
20015;BME280;61787;42.022;23.078;2023-07-24T00:37:37;96898.56;;;24.08;46.97
20015;BME280;61787;42.022;23.078;2023-07-24T00:38:39;96907.06;;;24.14;47.04
20015;BME280;61787;42.022;23.078;2023-07-24T00:39:41;96907.81;;;24.18;47.01
20015;BME280;61787;42.022;23.078;2023-07-24T00:40:42;96905.59;;;24.09;47.40
20015;BME280;61787;42.022;23.078;2023-07-24T00:41:44;96900.38;;;23.95;47.38
20015;BME280;61787;42.022;23.078;2023-07-24T00:42:47;96896.56;;;23.89;47.79
20015;BME280;61787;42.022;23.078;2023-07-24T00:43:49;96901.97;;;23.93;47.60
20015;BME280;61787;42.022;23.078;2023-07-24T00:44:50;96901.78;;;24.03;47.65
20015;BME280;61787;42.022;23.078;2023-07-24T00:45:53;96895.34;;;24.13;47.60
20015;BME280;61787;42.022;23.078;2023-07-24T00:46:55;96902.25;;;24.21;47.62
20015;BME280;61787;42.022;23.078;2023-07-24T00:47:59;96898.97;;;24.30;47.74
20015;BME280;61787;42.022;23.078;2023-07-24T00:49:02;96900.53;;;24.31;47.48
20015;BME280;61787;42.022;23.078;2023-07-24T00:50:06;96901.91;;;24.19;47.06
20015;BME280;61787;42.022;23.078;2023-07-24T00:51:08;96907.25;;;24.03;47.24
20015;BME280;61787;42.022;23.078;2023-07-24T00:52:10;96905.25;;;23.84;47.45
20015;BME280;61787;42.022;23.078;2023-07-24T00:53:12;96900.50;;;23.88;47.55
20015;BME280;61787;42.022;23.078;2023-07-24T00:54:16;96900.22;;;24.02;47.40
20015;BME280;61787;42.022;23.078;2023-07-24T00:55:18;96907.06;;;24.14;47.55
20015;BME280;61787;42.022;23.078;2023-07-24T00:56:20;96902.97;;;24.26;47.50
20015;BME280;61787;42.022;23.078;2023-07-24T00:57:23;96900.03;;;24.36;46.80
20015;BME280;61787;42.022;23.078;2023-07-24T00:58:25;96906.50;;;24.46;46.73
20015;BME280;61787;42.022;23.078;2023-07-24T00:59:27;96903.63;;;24.53;46.43
20015;BME280;61787;42.022;23.078;2023-07-24T01:00:29;96896.09;;;24.57;46.48
20015;BME280;61787;42.022;23.078;2023-07-24T01:01:34;96892.16;;;24.58;46.57
20015;BME280;61787;42.022;23.078;2023-07-24T01:02:37;96891.38;;;24.57;47.29
20015;BME280;61787;42.022;23.078;2023-07-24T01:03:39;96898.41;;;24.58;47.04
20015;BME280;61787;42.022;23.078;2023-07-24T01:04:41;96895.34;;;24.56;46.80
20015;BME280;61787;42.022;23.078;2023-07-24T01:05:43;96889.91;;;24.53;46.97
20015;BME280;61787;42.022;23.078;2023-07-24T01:06:44;96887.59;;;24.51;46.77
20015;BME280;61787;42.022;23.078;2023-07-24T01:07:46;96891.13;;;24.52;47.08
20015;BME280;61787;42.022;23.078;2023-07-24T01:08:48;96892.31;;;24.51;46.87
20015;BME280;61787;42.022;23.078;2023-07-24T01:09:50;96883.63;;;24.52;46.81
20015;BME280;61787;42.022;23.078;2023-07-24T01:10:52;96885.97;;;24.54;46.72
20015;BME280;61787;42.022;23.078;2023-07-24T01:11:59;96882.72;;;24.59;46.91
20015;BME280;61787;42.022;23.078;2023-07-24T01:13:14;96887.72;;;24.64;46.75
20015;BME280;61787;42.022;23.078;2023-07-24T01:14:29;96887.22;;;24.69;46.58
20015;BME280;61787;42.022;23.078;2023-07-24T01:16:03;96891.72;;;24.79;46.35
20015;BME280;61787;42.022;23.078;2023-07-24T01:17:07;96889.97;;;24.69;46.36
20015;BME280;61787;42.022;23.078;2023-07-24T01:18:10;96883.59;;;24.56;46.84
20015;BME280;61787;42.022;23.078;2023-07-24T01:19:20;96891.81;;;24.56;47.18
20015;BME280;61787;42.022;23.078;2023-07-24T01:20:22;96889.19;;;24.49;47.38
20015;BME280;61787;42.022;23.078;2023-07-24T01:21:45;96885.91;;;24.38;47.96
20015;BME280;61787;42.022;23.078;2023-07-24T01:25:18;96892.56;;;23.94;49.15
20015;BME280;61787;42.022;23.078;2023-07-24T01:26:25;96892.75;;;23.83;49.42
20015;BME280;61787;42.022;23.078;2023-07-24T01:27:27;96890.31;;;23.65;50.10
20015;BME280;61787;42.022;23.078;2023-07-24T01:28:29;96890.13;;;23.53;49.87
20015;BME280;61787;42.022;23.078;2023-07-24T01:29:30;96889.06;;;23.47;50.13
20015;BME280;61787;42.022;23.078;2023-07-24T01:30:32;96895.81;;;23.38;50.03
20015;BME280;61787;42.022;23.078;2023-07-24T01:31:34;96893.25;;;23.24;50.14
20015;BME280;61787;42.022;23.078;2023-07-24T01:32:36;96892.53;;;23.20;50.07
20015;BME280;61787;42.022;23.078;2023-07-24T01:33:38;96897.69;;;23.18;50.09
20015;BME280;61787;42.022;23.078;2023-07-24T01:34:40;96893.00;;;23.15;50.30
20015;BME280;61787;42.022;23.078;2023-07-24T01:35:43;96893.00;;;23.15;49.90
20015;BME280;61787;42.022;23.078;2023-07-24T01:36:45;96885.91;;;23.21;50.00
20015;BME280;61787;42.022;23.078;2023-07-24T01:37:47;96891.75;;;23.23;50.26
20015;BME280;61787;42.022;23.078;2023-07-24T01:38:50;96891.00;;;23.19;50.29
20015;BME280;61787;42.022;23.078;2023-07-24T01:39:53;96889.63;;;23.08;50.73
20015;BME280;61787;42.022;23.078;2023-07-24T01:40:56;96892.38;;;23.04;50.53
20015;BME280;61787;42.022;23.078;2023-07-24T01:41:58;96896.16;;;23.14;50.60
20015;BME280;61787;42.022;23.078;2023-07-24T01:43:00;96891.38;;;23.21;50.41
20015;BME280;61787;42.022;23.078;2023-07-24T01:44:02;96898.63;;;23.31;50.11
20015;BME280;61787;42.022;23.078;2023-07-24T01:45:04;96898.25;;;23.29;50.33
20015;BME280;61787;42.022;23.078;2023-07-24T01:46:06;96898.63;;;23.31;50.23
20015;BME280;61787;42.022;23.078;2023-07-24T01:47:08;96897.09;;;23.30;50.20
20015;BME280;61787;42.022;23.078;2023-07-24T01:48:09;96904.13;;;23.31;50.51
20015;BME280;61787;42.022;23.078;2023-07-24T01:49:11;96905.28;;;23.30;50.55
20015;BME280;61787;42.022;23.078;2023-07-24T01:50:13;96904.50;;;23.33;50.77
20015;BME280;61787;42.022;23.078;2023-07-24T01:51:15;96903.59;;;23.40;51.07
20015;BME280;61787;42.022;23.078;2023-07-24T01:52:17;96907.47;;;23.43;51.14
20015;BME280;61787;42.022;23.078;2023-07-24T01:53:19;96901.91;;;23.50;51.18
20015;BME280;61787;42.022;23.078;2023-07-24T01:54:20;96907.28;;;23.57;50.99
20015;BME280;61787;42.022;23.078;2023-07-24T01:55:22;96900.84;;;23.67;50.67
20015;BME280;61787;42.022;23.078;2023-07-24T01:56:24;96906.22;;;23.74;50.17
20015;BME280;61787;42.022;23.078;2023-07-24T01:57:25;96903.78;;;23.79;49.94
20015;BME280;61787;42.022;23.078;2023-07-24T01:58:27;96902.53;;;23.84;49.94
20015;BME280;61787;42.022;23.078;2023-07-24T01:59:28;96908.72;;;23.88;49.80
20015;BME280;61787;42.022;23.078;2023-07-24T02:00:30;96904.34;;;23.91;49.58
20015;BME280;61787;42.022;23.078;2023-07-24T02:01:32;96910.66;;;23.88;50.17
20015;BME280;61787;42.022;23.078;2023-07-24T02:02:33;96911.69;;;23.74;49.15
20015;BME280;61787;42.022;23.078;2023-07-24T02:03:35;96909.84;;;23.41;48.96
20015;BME280;61787;42.022;23.078;2023-07-24T02:04:37;96903.16;;;23.18;50.02
20015;BME280;61787;42.022;23.078;2023-07-24T02:05:38;96907.78;;;23.21;50.49
20015;BME280;61787;42.022;23.078;2023-07-24T02:06:40;96906.91;;;23.28;50.94
20015;BME280;61787;42.022;23.078;2023-07-24T02:07:42;96905.19;;;23.37;51.32
20015;BME280;61787;42.022;23.078;2023-07-24T02:08:43;96904.31;;;23.44;51.48
20015;BME280;61787;42.022;23.078;2023-07-24T02:09:50;96901.56;;;23.48;51.54
20015;BME280;61787;42.022;23.078;2023-07-24T02:10:52;96897.16;;;23.54;51.75
20015;BME280;61787;42.022;23.078;2023-07-24T02:11:53;96899.75;;;23.61;51.47
20015;BME280;61787;42.022;23.078;2023-07-24T02:12:55;96900.13;;;23.63;51.29
20015;BME280;61787;42.022;23.078;2023-07-24T02:13:56;96904.00;;;23.65;51.73
20015;BME280;61787;42.022;23.078;2023-07-24T02:14:58;96898.66;;;23.58;51.37
20015;BME280;61787;42.022;23.078;2023-07-24T02:16:01;96895.03;;;23.38;51.77
20015;BME280;61787;42.022;23.078;2023-07-24T02:17:03;96891.22;;;23.32;51.78
20015;BME280;61787;42.022;23.078;2023-07-24T02:18:04;96897.47;;;23.32;51.82
20015;BME280;61787;42.022;23.078;2023-07-24T02:19:06;96895.13;;;23.31;52.13
20015;BME280;61787;42.022;23.078;2023-07-24T02:20:08;96893.88;;;23.35;51.96
20015;BME280;61787;42.022;23.078;2023-07-24T02:21:09;96891.44;;;23.41;51.99
20015;BME280;61787;42.022;23.078;2023-07-24T02:22:11;96894.91;;;23.49;52.08
20015;BME280;61787;42.022;23.078;2023-07-24T02:23:13;96890.84;;;23.57;51.97
20015;BME280;61787;42.022;23.078;2023-07-24T02:24:15;96898.19;;;23.63;51.96
20015;BME280;61787;42.022;23.078;2023-07-24T02:25:16;96895.38;;;23.67;51.91
20015;BME280;61787;42.022;23.078;2023-07-24T02:26:18;96898.19;;;23.63;51.87
20015;BME280;61787;42.022;23.078;2023-07-24T02:27:29;96897.81;;;23.61;51.92
20015;BME280;61787;42.022;23.078;2023-07-24T02:28:32;96903.28;;;23.61;52.05
20015;BME280;61787;42.022;23.078;2023-07-24T02:29:34;96899.34;;;23.62;52.03
20015;BME280;61787;42.022;23.078;2023-07-24T02:30:39;96907.88;;;23.68;51.88
20015;BME280;61787;42.022;23.078;2023-07-24T02:31:41;96906.22;;;23.74;51.26
20015;BME280;61787;42.022;23.078;2023-07-24T02:32:43;96900.75;;;23.74;51.47
20015;BME280;61787;42.022;23.078;2023-07-24T02:33:44;96905.38;;;23.77;51.34
20015;BME280;61787;42.022;23.078;2023-07-24T02:34:46;96901.81;;;23.80;51.34
20015;BME280;61787;42.022;23.078;2023-07-24T02:35:51;96908.81;;;23.81;51.37
20015;BME280;61787;42.022;23.078;2023-07-24T02:36:53;96903.00;;;23.79;51.05
20015;BME280;61787;42.022;23.078;2023-07-24T02:37:54;96901.91;;;23.73;51.25
20015;BME280;61787;42.022;23.078;2023-07-24T02:38:56;96903.97;;;23.69;51.22
20015;BME280;61787;42.022;23.078;2023-07-24T02:39:58;96897.69;;;23.68;51.08
20015;BME280;61787;42.022;23.078;2023-07-24T02:40:59;96891.84;;;23.66;51.41
20015;BME280;61787;42.022;23.078;2023-07-24T02:42:01;96890.31;;;23.65;51.57
20015;BME280;61787;42.022;23.078;2023-07-24T02:43:02;96888.34;;;23.66;51.54
20015;BME280;61787;42.022;23.078;2023-07-24T02:44:04;96883.59;;;23.70;51.36
20015;BME280;61787;42.022;23.078;2023-07-24T02:45:06;96883.94;;;23.72;51.33
20015;BME280;61787;42.022;23.078;2023-07-24T02:46:12;96895.25;;;23.74;51.02
20015;BME280;61787;42.022;23.078;2023-07-24T02:47:14;96891.69;;;23.77;51.10
20015;BME280;61787;42.022;23.078;2023-07-24T02:48:15;96895.13;;;23.81;51.03
20015;BME280;61787;42.022;23.078;2023-07-24T02:49:17;96893.59;;;23.80;50.81
20015;BME280;61787;42.022;23.078;2023-07-24T02:50:19;96891.56;;;23.84;50.64
20015;BME280;61787;42.022;23.078;2023-07-24T02:51:20;96902.09;;;23.86;50.67
20015;BME280;61787;42.022;23.078;2023-07-24T02:52:22;96900.56;;;23.85;50.85
20015;BME280;61787;42.022;23.078;2023-07-24T02:53:24;96899.72;;;23.88;50.96
20015;BME280;61787;42.022;23.078;2023-07-24T02:54:26;96900.50;;;23.88;50.90
20015;BME280;61787;42.022;23.078;2023-07-24T02:55:28;96898.94;;;23.87;50.97
20015;BME280;61787;42.022;23.078;2023-07-24T02:56:30;96895.38;;;23.90;50.71
20015;BME280;61787;42.022;23.078;2023-07-24T02:57:32;96905.19;;;23.88;50.36
20015;BME280;61787;42.022;23.078;2023-07-24T02:58:33;96903.72;;;23.83;50.29
20015;BME280;61787;42.022;23.078;2023-07-24T02:59:35;96902.88;;;23.86;50.01
20015;BME280;61787;42.022;23.078;2023-07-24T03:00:37;96900.97;;;23.83;50.10
20015;BME280;61787;42.022;23.078;2023-07-24T03:01:38;96903.81;;;23.76;50.39
20015;BME280;61787;42.022;23.078;2023-07-24T03:02:41;96906.69;;;23.69;50.66
20015;BME280;61787;42.022;23.078;2023-07-24T03:03:43;96908.03;;;23.57;50.92
20015;BME280;61787;42.022;23.078;2023-07-24T03:04:44;96898.69;;;23.55;51.04
20015;BME280;61787;42.022;23.078;2023-07-24T03:05:46;96904.16;;;23.55;51.23
20015;BME280;61787;42.022;23.078;2023-07-24T03:06:48;96902.56;;;23.57;50.79
20015;BME280;61787;42.022;23.078;2023-07-24T03:07:50;96907.19;;;23.60;50.95
20015;BME280;61787;42.022;23.078;2023-07-24T03:08:51;96906.38;;;23.63;50.85
20015;BME280;61787;42.022;23.078;2023-07-24T03:09:53;96915.72;;;23.66;50.96
20015;BME280;61787;42.022;23.078;2023-07-24T03:10:54;96900.78;;;23.70;50.76
20015;BME280;61787;42.022;23.078;2023-07-24T03:11:56;96910.91;;;23.73;50.49
20015;BME280;61787;42.022;23.078;2023-07-24T03:12:58;96909.78;;;23.71;50.55
20015;BME280;61787;42.022;23.078;2023-07-24T03:13:59;96907.00;;;23.74;50.56
20015;BME280;61787;42.022;23.078;2023-07-24T03:15:01;96914.44;;;23.74;50.49
20015;BME280;61787;42.022;23.078;2023-07-24T03:16:03;96922.66;;;23.74;50.65
20015;BME280;61787;42.022;23.078;2023-07-24T03:17:04;96907.03;;;23.71;50.65
20015;BME280;61787;42.022;23.078;2023-07-24T03:18:06;96914.91;;;23.69;50.93
20015;BME280;61787;42.022;23.078;2023-07-24T03:19:08;96919.59;;;23.68;51.24
20015;BME280;61787;42.022;23.078;2023-07-24T03:20:15;96918.81;;;23.68;51.20
20015;BME280;61787;42.022;23.078;2023-07-24T03:21:17;96911.81;;;23.67;51.18
20015;BME280;61787;42.022;23.078;2023-07-24T03:22:18;96918.81;;;23.68;51.07
20015;BME280;61787;42.022;23.078;2023-07-24T03:23:20;96923.59;;;23.64;51.13
20015;BME280;61787;42.022;23.078;2023-07-24T03:24:22;96918.13;;;23.64;51.16
20015;BME280;61787;42.022;23.078;2023-07-24T03:25:24;96912.66;;;23.64;50.83
20015;BME280;61787;42.022;23.078;2023-07-24T03:26:25;96918.22;;;23.57;50.43
20015;BME280;61787;42.022;23.078;2023-07-24T03:27:27;96914.41;;;23.51;50.57
20015;BME280;61787;42.022;23.078;2023-07-24T03:28:29;96916.03;;;23.48;50.52
20015;BME280;61787;42.022;23.078;2023-07-24T03:29:30;96921.97;;;23.39;50.67
20015;BME280;61787;42.022;23.078;2023-07-24T03:30:32;96914.22;;;23.34;50.88
20015;BME280;61787;42.022;23.078;2023-07-24T03:31:34;96913.97;;;23.25;51.25
20015;BME280;61787;42.022;23.078;2023-07-24T03:32:37;96916.81;;;23.18;51.22
20015;BME280;61787;42.022;23.078;2023-07-24T03:33:39;96912.75;;;23.03;51.46
20015;BME280;61787;42.022;23.078;2023-07-24T03:34:41;96913.03;;;22.82;52.17
20015;BME280;61787;42.022;23.078;2023-07-24T03:35:43;96915.16;;;22.64;52.41
20015;BME280;61787;42.022;23.078;2023-07-24T03:36:44;96915.59;;;22.59;53.05
20015;BME280;61787;42.022;23.078;2023-07-24T03:37:46;96912.16;;;22.54;53.41
20015;BME280;61787;42.022;23.078;2023-07-24T03:38:47;96912.47;;;22.60;53.35
20015;BME280;61787;42.022;23.078;2023-07-24T03:39:49;96900.03;;;22.56;53.38
20015;BME280;61787;42.022;23.078;2023-07-24T03:40:51;96910.97;;;22.56;53.34
20015;BME280;61787;42.022;23.078;2023-07-24T03:41:52;96914.94;;;22.47;53.86
20015;BME280;61787;42.022;23.078;2023-07-24T03:42:54;96916.97;;;22.43;53.83
20015;BME280;61787;42.022;23.078;2023-07-24T03:43:55;96914.63;;;22.42;53.96
20015;BME280;61787;42.022;23.078;2023-07-24T03:44:57;96917.41;;;22.38;53.85
20015;BME280;61787;42.022;23.078;2023-07-24T03:45:59;96918.22;;;22.35;53.78
20015;BME280;61787;42.022;23.078;2023-07-24T03:47:01;96923.81;;;22.25;53.94
20015;BME280;61787;42.022;23.078;2023-07-24T03:48:02;96924.25;;;22.16;54.17
20015;BME280;61787;42.022;23.078;2023-07-24T03:49:04;96921.53;;;22.16;53.92
20015;BME280;61787;42.022;23.078;2023-07-24T03:50:06;96925.41;;;22.19;54.02
20015;BME280;61787;42.022;23.078;2023-07-24T03:51:08;96925.41;;;22.19;54.30
20015;BME280;61787;42.022;23.078;2023-07-24T03:52:09;96929.31;;;22.21;53.86
20015;BME280;61787;42.022;23.078;2023-07-24T03:53:11;96929.63;;;22.27;53.98
20015;BME280;61787;42.022;23.078;2023-07-24T03:54:13;96930.00;;;22.29;54.12
20015;BME280;61787;42.022;23.078;2023-07-24T03:55:15;96925.28;;;22.33;53.91
20015;BME280;61787;42.022;23.078;2023-07-24T03:56:16;96920.97;;;22.35;54.01
20015;BME280;61787;42.022;23.078;2023-07-24T03:57:18;96920.88;;;22.42;54.36
20015;BME280;61787;42.022;23.078;2023-07-24T03:58:20;96925.94;;;22.44;54.89
20015;BME280;61787;42.022;23.078;2023-07-24T03:59:21;96927.50;;;22.45;54.65
20015;BME280;61787;42.022;23.078;2023-07-24T04:00:23;96921.56;;;22.50;54.32
20015;BME280;61787;42.022;23.078;2023-07-24T04:01:25;96925.44;;;22.52;54.29
20015;BME280;61787;42.022;23.078;2023-07-24T04:02:28;96927.28;;;22.63;54.87
20015;BME280;61787;42.022;23.078;2023-07-24T04:03:29;96924.44;;;22.73;54.53
20015;BME280;61787;42.022;23.078;2023-07-24T04:04:31;96929.78;;;22.84;54.39
20015;BME280;61787;42.022;23.078;2023-07-24T04:05:35;96925.41;;;22.90;54.14
20015;BME280;61787;42.022;23.078;2023-07-24T04:06:36;96919.09;;;22.93;54.39
20015;BME280;61787;42.022;23.078;2023-07-24T04:07:38;96922.13;;;23.02;54.06
20015;BME280;61787;42.022;23.078;2023-07-24T04:08:40;96922.84;;;23.06;53.62
20015;BME280;61787;42.022;23.078;2023-07-24T04:09:41;96928.94;;;23.17;53.21
20015;BME280;61787;42.022;23.078;2023-07-24T04:10:43;96928.03;;;23.27;52.80
20015;BME280;61787;42.022;23.078;2023-07-24T04:11:45;96934.94;;;23.35;52.80
20015;BME280;61787;42.022;23.078;2023-07-24T04:12:46;96929.38;;;23.43;52.60
20015;BME280;61787;42.022;23.078;2023-07-24T04:13:48;96939.34;;;23.56;52.03
20015;BME280;61787;42.022;23.078;2023-07-24T04:14:49;96937.75;;;23.59;51.79
20015;BME280;61787;42.022;23.078;2023-07-24T04:15:52;96937.75;;;23.59;52.00
20015;BME280;61787;42.022;23.078;2023-07-24T04:16:55;96940.13;;;23.57;52.50
20015;BME280;61787;42.022;23.078;2023-07-24T04:18:00;96938.69;;;23.49;52.26
20015;BME280;61787;42.022;23.078;2023-07-24T04:19:03;96939.50;;;23.46;52.16
20015;BME280;61787;42.022;23.078;2023-07-24T04:20:05;96936.03;;;23.42;52.83
20015;BME280;61787;42.022;23.078;2023-07-24T04:21:07;96938.75;;;23.42;52.62
20015;BME280;61787;42.022;23.078;2023-07-24T04:22:09;96950.41;;;23.49;52.63
20015;BME280;61787;42.022;23.078;2023-07-24T04:23:10;96945.97;;;23.59;52.59
20015;BME280;61787;42.022;23.078;2023-07-24T04:24:12;96944.59;;;23.70;52.38
20015;BME280;61787;42.022;23.078;2023-07-24T04:25:14;96944.44;;;23.81;52.39
20015;BME280;61787;42.022;23.078;2023-07-24T04:26:16;96942.75;;;23.87;52.57
20015;BME280;61787;42.022;23.078;2023-07-24T04:27:17;96951.22;;;23.96;52.29
20015;BME280;61787;42.022;23.078;2023-07-24T04:28:19;96948.84;;;23.98;50.93
20015;BME280;61787;42.022;23.078;2023-07-24T04:29:21;96946.59;;;23.70;51.64
20015;BME280;61787;42.022;23.078;2023-07-24T04:30:25;96950.88;;;23.41;52.86
20015;BME280;61787;42.022;23.078;2023-07-24T04:31:27;96945.78;;;23.43;52.94
20015;BME280;61787;42.022;23.078;2023-07-24T04:32:28;96949.75;;;23.65;53.05
20015;BME280;61787;42.022;23.078;2023-07-24T04:33:30;96947.16;;;23.81;53.25
20015;BME280;61787;42.022;23.078;2023-07-24T04:34:33;96945.16;;;23.85;52.12
20015;BME280;61787;42.022;23.078;2023-07-24T04:35:35;96942.91;;;23.80;52.61
20015;BME280;61787;42.022;23.078;2023-07-24T04:36:36;96939.69;;;23.85;52.53
20015;BME280;61787;42.022;23.078;2023-07-24T04:37:38;96941.03;;;23.97;52.20
20015;BME280;61787;42.022;23.078;2023-07-24T04:38:39;96943.72;;;24.00;51.88
20015;BME280;61787;42.022;23.078;2023-07-24T04:39:41;96940.91;;;24.04;51.36
20015;BME280;61787;42.022;23.078;2023-07-24T04:40:44;96943.28;;;24.02;51.48
20015;BME280;61787;42.022;23.078;2023-07-24T04:41:46;96937.00;;;24.05;51.23
20015;BME280;61787;42.022;23.078;2023-07-24T04:42:48;96934.59;;;24.07;51.41
20015;BME280;61787;42.022;23.078;2023-07-24T04:43:49;96937.34;;;24.07;51.23
20015;BME280;61787;42.022;23.078;2023-07-24T04:44:51;96936.94;;;23.85;52.06
20015;BME280;61787;42.022;23.078;2023-07-24T04:45:53;96936.00;;;23.95;51.88
20015;BME280;61787;42.022;23.078;2023-07-24T04:46:54;96933.28;;;24.15;52.35
20015;BME280;61787;42.022;23.078;2023-07-24T04:47:57;96935.25;;;24.14;51.10
20015;BME280;61787;42.022;23.078;2023-07-24T04:48:59;96939.81;;;24.25;51.50
20015;BME280;61787;42.022;23.078;2023-07-24T04:50:00;96931.31;;;24.39;51.88
20015;BME280;61787;42.022;23.078;2023-07-24T04:51:02;96937.97;;;24.38;51.62
20015;BME280;61787;42.022;23.078;2023-07-24T04:52:04;96939.16;;;24.37;50.24
20015;BME280;61787;42.022;23.078;2023-07-24T04:53:06;96936.56;;;24.30;50.21
20015;BME280;61787;42.022;23.078;2023-07-24T04:54:07;96936.00;;;24.18;50.33
20015;BME280;61787;42.022;23.078;2023-07-24T04:55:09;96938.72;;;24.18;50.57
20015;BME280;61787;42.022;23.078;2023-07-24T04:56:11;96937.53;;;24.19;50.95
20015;BME280;61787;42.022;23.078;2023-07-24T04:57:12;96936.00;;;24.18;51.19
20015;BME280;61787;42.022;23.078;2023-07-24T04:58:14;96932.69;;;24.27;50.53
20015;BME280;61787;42.022;23.078;2023-07-24T04:59:16;96932.78;;;24.24;50.57
20015;BME280;61787;42.022;23.078;2023-07-24T05:00:18;96936.44;;;24.37;50.76
20015;BME280;61787;42.022;23.078;2023-07-24T05:01:19;96930.34;;;24.49;50.15
20015;BME280;61787;42.022;23.078;2023-07-24T05:02:21;96936.44;;;24.37;50.38
20015;BME280;61787;42.022;23.078;2023-07-24T05:03:26;96941.66;;;24.51;50.52
20015;BME280;61787;42.022;23.078;2023-07-24T05:04:28;96934.22;;;24.71;51.07
20015;BME280;61787;42.022;23.078;2023-07-24T05:05:29;96937.75;;;24.91;51.22
20015;BME280;61787;42.022;23.078;2023-07-24T05:06:33;96938.13;;;25.10;50.42
20015;BME280;61787;42.022;23.078;2023-07-24T05:07:36;96941.78;;;25.23;49.88
20015;BME280;61787;42.022;23.078;2023-07-24T05:08:38;96939.75;;;25.43;49.01
20015;BME280;61787;42.022;23.078;2023-07-24T05:09:39;96939.88;;;25.56;49.33
20015;BME280;61787;42.022;23.078;2023-07-24T05:10:41;96930.09;;;25.71;49.01
20015;BME280;61787;42.022;23.078;2023-07-24T05:11:43;96929.66;;;25.88;48.17
20015;BME280;61787;42.022;23.078;2023-07-24T05:12:46;96935.81;;;26.09;48.13
20015;BME280;61787;42.022;23.078;2023-07-24T05:13:48;96931.94;;;26.22;47.12
20015;BME280;61787;42.022;23.078;2023-07-24T05:14:50;96927.38;;;26.32;47.08
20015;BME280;61787;42.022;23.078;2023-07-24T05:15:52;96935.47;;;26.23;47.32
20015;BME280;61787;42.022;23.078;2023-07-24T05:16:53;96934.28;;;26.08;47.43
20015;BME280;61787;42.022;23.078;2023-07-24T05:17:55;96939.00;;;26.07;47.05
20015;BME280;61787;42.022;23.078;2023-07-24T05:18:57;96935.97;;;26.18;46.93
20015;BME280;61787;42.022;23.078;2023-07-24T05:19:58;96935.19;;;26.17;47.45
20015;BME280;61787;42.022;23.078;2023-07-24T05:21:00;96936.41;;;26.16;46.77
20015;BME280;61787;42.022;23.078;2023-07-24T05:22:01;96934.28;;;26.08;45.95
20015;BME280;61787;42.022;23.078;2023-07-24T05:23:04;96936.78;;;26.02;46.48
20015;BME280;61787;42.022;23.078;2023-07-24T05:24:06;96928.88;;;26.04;46.21
20015;BME280;61787;42.022;23.078;2023-07-24T05:25:08;96926.53;;;26.19;46.28
20015;BME280;61787;42.022;23.078;2023-07-24T05:26:10;96928.06;;;26.36;46.34
20015;BME280;61787;42.022;23.078;2023-07-24T05:27:11;96925.50;;;26.29;45.92
20015;BME280;61787;42.022;23.078;2023-07-24T05:28:14;96932.41;;;26.05;46.85